sensor_id;sensor_type;location;lat;lon;timestamp;P1;durP1;ratioP1;P2;durP2;ratioP2
37409;SDS011;23275;48.914;12.566;2023-10-09T00:01:49;3.75;;;2.40;;
37409;SDS011;23275;48.914;12.566;2023-10-09T00:04:16;4.03;;;2.50;;
37409;SDS011;23275;48.914;12.566;2023-10-09T00:06:41;5.15;;;2.47;;
37409;SDS011;23275;48.914;12.566;2023-10-09T00:09:07;5.85;;;2.65;;
37409;SDS011;23275;48.914;12.566;2023-10-09T00:11:48;6.15;;;2.63;;
37409;SDS011;23275;48.914;12.566;2023-10-09T00:14:21;3.90;;;2.65;;
37409;SDS011;23275;48.914;12.566;2023-10-09T00:16:47;4.50;;;2.88;;
37409;SDS011;23275;48.914;12.566;2023-10-09T00:19:21;4.72;;;2.60;;
37409;SDS011;23275;48.914;12.566;2023-10-09T00:21:55;7.30;;;2.67;;
37409;SDS011;23275;48.914;12.566;2023-10-09T00:24:21;3.10;;;2.05;;
37409;SDS011;23275;48.914;12.566;2023-10-09T00:26:53;5.65;;;2.50;;
37409;SDS011;23275;48.914;12.566;2023-10-09T00:29:39;5.88;;;1.88;;
37409;SDS011;23275;48.914;12.566;2023-10-09T00:32:14;4.43;;;2.10;;
37409;SDS011;23275;48.914;12.566;2023-10-09T00:34:57;3.97;;;2.20;;
37409;SDS011;23275;48.914;12.566;2023-10-09T00:37:38;3.55;;;2.03;;
37409;SDS011;23275;48.914;12.566;2023-10-09T00:40:05;4.00;;;2.13;;
37409;SDS011;23275;48.914;12.566;2023-10-09T00:42:45;3.45;;;2.20;;
37409;SDS011;23275;48.914;12.566;2023-10-09T00:45:11;3.13;;;2.08;;
37409;SDS011;23275;48.914;12.566;2023-10-09T00:47:41;7.22;;;2.90;;
37409;SDS011;23275;48.914;12.566;2023-10-09T00:50:08;3.53;;;1.90;;
37409;SDS011;23275;48.914;12.566;2023-10-09T00:52:41;4.72;;;2.80;;
37409;SDS011;23275;48.914;12.566;2023-10-09T00:55:14;4.65;;;2.00;;
37409;SDS011;23275;48.914;12.566;2023-10-09T00:57:46;4.03;;;2.30;;
37409;SDS011;23275;48.914;12.566;2023-10-09T01:00:25;8.18;;;3.38;;
37409;SDS011;23275;48.914;12.566;2023-10-09T01:03:01;5.00;;;2.45;;
37409;SDS011;23275;48.914;12.566;2023-10-09T01:05:49;5.22;;;2.47;;
37409;SDS011;23275;48.914;12.566;2023-10-09T01:08:20;6.43;;;2.58;;
37409;SDS011;23275;48.914;12.566;2023-10-09T01:10:58;4.20;;;2.72;;
37409;SDS011;23275;48.914;12.566;2023-10-09T01:13:39;5.20;;;2.13;;
37409;SDS011;23275;48.914;12.566;2023-10-09T01:16:11;4.55;;;2.78;;
37409;SDS011;23275;48.914;12.566;2023-10-09T01:18:42;5.28;;;2.63;;
37409;SDS011;23275;48.914;12.566;2023-10-09T01:21:08;7.20;;;2.70;;
37409;SDS011;23275;48.914;12.566;2023-10-09T01:23:39;6.20;;;2.75;;
37409;SDS011;23275;48.914;12.566;2023-10-09T01:26:35;9.05;;;2.65;;
37409;SDS011;23275;48.914;12.566;2023-10-09T01:29:09;8.65;;;2.45;;
37409;SDS011;23275;48.914;12.566;2023-10-09T01:31:39;8.48;;;2.60;;
37409;SDS011;23275;48.914;12.566;2023-10-09T01:34:19;4.60;;;2.17;;
37409;SDS011;23275;48.914;12.566;2023-10-09T01:37:12;5.15;;;1.92;;
37409;SDS011;23275;48.914;12.566;2023-10-09T01:39:49;6.93;;;2.47;;
37409;SDS011;23275;48.914;12.566;2023-10-09T01:42:16;4.25;;;2.15;;
37409;SDS011;23275;48.914;12.566;2023-10-09T01:44:59;6.78;;;2.40;;
37409;SDS011;23275;48.914;12.566;2023-10-09T01:47:51;4.22;;;2.40;;
37409;SDS011;23275;48.914;12.566;2023-10-09T01:50:19;7.45;;;2.55;;
37409;SDS011;23275;48.914;12.566;2023-10-09T01:52:47;4.88;;;2.50;;
37409;SDS011;23275;48.914;12.566;2023-10-09T01:55:13;5.25;;;2.70;;
37409;SDS011;23275;48.914;12.566;2023-10-09T01:57:52;8.15;;;2.97;;
37409;SDS011;23275;48.914;12.566;2023-10-09T02:00:18;5.18;;;2.95;;
37409;SDS011;23275;48.914;12.566;2023-10-09T02:02:48;7.53;;;4.07;;
37409;SDS011;23275;48.914;12.566;2023-10-09T02:05:15;6.68;;;3.75;;
37409;SDS011;23275;48.914;12.566;2023-10-09T02:07:41;7.78;;;3.28;;
37409;SDS011;23275;48.914;12.566;2023-10-09T02:10:16;6.60;;;3.95;;
37409;SDS011;23275;48.914;12.566;2023-10-09T02:12:55;8.52;;;3.47;;
37409;SDS011;23275;48.914;12.566;2023-10-09T02:15:27;7.13;;;3.42;;
37409;SDS011;23275;48.914;12.566;2023-10-09T02:18:10;6.85;;;3.13;;
37409;SDS011;23275;48.914;12.566;2023-10-09T02:23:29;5.05;;;2.78;;
37409;SDS011;23275;48.914;12.566;2023-10-09T02:26:06;7.20;;;3.00;;
37409;SDS011;23275;48.914;12.566;2023-10-09T02:28:33;5.40;;;3.38;;
37409;SDS011;23275;48.914;12.566;2023-10-09T02:31:11;5.50;;;3.05;;
37409;SDS011;23275;48.914;12.566;2023-10-09T02:33:37;5.30;;;3.30;;
37409;SDS011;23275;48.914;12.566;2023-10-09T02:36:06;5.25;;;3.15;;
37409;SDS011;23275;48.914;12.566;2023-10-09T02:38:32;5.63;;;3.10;;
37409;SDS011;23275;48.914;12.566;2023-10-09T02:41:05;4.75;;;3.20;;
37409;SDS011;23275;48.914;12.566;2023-10-09T02:43:34;5.05;;;3.05;;
37409;SDS011;23275;48.914;12.566;2023-10-09T02:46:19;4.82;;;3.10;;
37409;SDS011;23275;48.914;12.566;2023-10-09T02:48:45;5.50;;;3.60;;
37409;SDS011;23275;48.914;12.566;2023-10-09T02:51:21;4.65;;;2.95;;
37409;SDS011;23275;48.914;12.566;2023-10-09T02:54:02;4.72;;;3.28;;
37409;SDS011;23275;48.914;12.566;2023-10-09T02:56:50;6.90;;;3.53;;
37409;SDS011;23275;48.914;12.566;2023-10-09T02:59:32;6.47;;;3.55;;
37409;SDS011;23275;48.914;12.566;2023-10-09T03:01:58;9.85;;;3.60;;
37409;SDS011;23275;48.914;12.566;2023-10-09T03:04:27;10.75;;;4.38;;
37409;SDS011;23275;48.914;12.566;2023-10-09T03:06:59;6.38;;;4.25;;
37409;SDS011;23275;48.914;12.566;2023-10-09T03:09:26;8.88;;;4.57;;
37409;SDS011;23275;48.914;12.566;2023-10-09T03:11:53;8.18;;;3.47;;
37409;SDS011;23275;48.914;12.566;2023-10-09T03:14:25;7.10;;;3.47;;
37409;SDS011;23275;48.914;12.566;2023-10-09T03:16:53;8.07;;;3.90;;
37409;SDS011;23275;48.914;12.566;2023-10-09T03:19:21;6.60;;;4.43;;
37409;SDS011;23275;48.914;12.566;2023-10-09T03:21:46;6.28;;;4.40;;
37409;SDS011;23275;48.914;12.566;2023-10-09T03:24:12;7.63;;;4.40;;
37409;SDS011;23275;48.914;12.566;2023-10-09T03:26:38;6.95;;;4.25;;
37409;SDS011;23275;48.914;12.566;2023-10-09T03:29:03;6.25;;;4.38;;
37409;SDS011;23275;48.914;12.566;2023-10-09T03:31:37;6.70;;;4.30;;
37409;SDS011;23275;48.914;12.566;2023-10-09T03:34:04;7.25;;;4.65;;
37409;SDS011;23275;48.914;12.566;2023-10-09T03:36:30;7.03;;;4.78;;
37409;SDS011;23275;48.914;12.566;2023-10-09T03:38:58;8.32;;;5.00;;
37409;SDS011;23275;48.914;12.566;2023-10-09T03:41:25;8.70;;;4.70;;
37409;SDS011;23275;48.914;12.566;2023-10-09T03:43:54;8.57;;;4.70;;
37409;SDS011;23275;48.914;12.566;2023-10-09T03:46:23;9.20;;;5.43;;
37409;SDS011;23275;48.914;12.566;2023-10-09T03:48:57;7.40;;;4.82;;
37409;SDS011;23275;48.914;12.566;2023-10-09T03:51:26;9.60;;;5.57;;
37409;SDS011;23275;48.914;12.566;2023-10-09T03:53:52;7.85;;;5.13;;
37409;SDS011;23275;48.914;12.566;2023-10-09T03:56:18;9.32;;;5.22;;
37409;SDS011;23275;48.914;12.566;2023-10-09T03:58:46;8.20;;;4.78;;
37409;SDS011;23275;48.914;12.566;2023-10-09T04:03:58;6.13;;;4.55;;
37409;SDS011;23275;48.914;12.566;2023-10-09T04:06:25;8.95;;;5.07;;
37409;SDS011;23275;48.914;12.566;2023-10-09T04:08:57;8.45;;;5.70;;
37409;SDS011;23275;48.914;12.566;2023-10-09T04:11:39;10.35;;;5.97;;
37409;SDS011;23275;48.914;12.566;2023-10-09T04:14:08;10.30;;;6.60;;
37409;SDS011;23275;48.914;12.566;2023-10-09T04:16:46;9.55;;;5.10;;
37409;SDS011;23275;48.914;12.566;2023-10-09T04:19:28;8.13;;;5.28;;
37409;SDS011;23275;48.914;12.566;2023-10-09T04:21:54;9.57;;;5.05;;
37409;SDS011;23275;48.914;12.566;2023-10-09T04:24:23;10.63;;;6.28;;
37409;SDS011;23275;48.914;12.566;2023-10-09T04:26:49;12.80;;;6.18;;
37409;SDS011;23275;48.914;12.566;2023-10-09T04:29:21;12.25;;;7.93;;
37409;SDS011;23275;48.914;12.566;2023-10-09T04:32:04;8.32;;;5.65;;
37409;SDS011;23275;48.914;12.566;2023-10-09T04:34:33;12.48;;;8.32;;
37409;SDS011;23275;48.914;12.566;2023-10-09T04:37:08;14.50;;;9.55;;
37409;SDS011;23275;48.914;12.566;2023-10-09T04:39:40;14.98;;;9.48;;
37409;SDS011;23275;48.914;12.566;2023-10-09T04:42:13;9.60;;;5.75;;
37409;SDS011;23275;48.914;12.566;2023-10-09T04:45:01;12.48;;;6.65;;
37409;SDS011;23275;48.914;12.566;2023-10-09T04:47:27;10.70;;;6.20;;
37409;SDS011;23275;48.914;12.566;2023-10-09T04:50:03;11.88;;;7.13;;
37409;SDS011;23275;48.914;12.566;2023-10-09T04:54:59;12.55;;;6.55;;
37409;SDS011;23275;48.914;12.566;2023-10-09T04:57:37;10.45;;;7.03;;
37409;SDS011;23275;48.914;12.566;2023-10-09T05:00:14;16.30;;;7.55;;
37409;SDS011;23275;48.914;12.566;2023-10-09T05:03:07;12.98;;;6.70;;
37409;SDS011;23275;48.914;12.566;2023-10-09T05:05:37;10.93;;;7.00;;
37409;SDS011;23275;48.914;12.566;2023-10-09T05:08:06;12.20;;;7.40;;
37409;SDS011;23275;48.914;12.566;2023-10-09T05:10:45;12.38;;;7.20;;
37409;SDS011;23275;48.914;12.566;2023-10-09T05:18:44;12.48;;;7.63;;
37409;SDS011;23275;48.914;12.566;2023-10-09T05:21:13;10.85;;;7.15;;
37409;SDS011;23275;48.914;12.566;2023-10-09T05:23:42;10.35;;;7.35;;
37409;SDS011;23275;48.914;12.566;2023-10-09T05:26:14;11.00;;;6.35;;
37409;SDS011;23275;48.914;12.566;2023-10-09T05:28:59;11.90;;;7.05;;
37409;SDS011;23275;48.914;12.566;2023-10-09T05:31:24;13.82;;;7.22;;
37409;SDS011;23275;48.914;12.566;2023-10-09T05:34:10;13.98;;;8.93;;
37409;SDS011;23275;48.914;12.566;2023-10-09T05:36:37;13.43;;;7.75;;
37409;SDS011;23275;48.914;12.566;2023-10-09T05:39:02;13.30;;;8.15;;
37409;SDS011;23275;48.914;12.566;2023-10-09T05:41:47;14.75;;;8.32;;
37409;SDS011;23275;48.914;12.566;2023-10-09T05:47:06;13.68;;;7.82;;
37409;SDS011;23275;48.914;12.566;2023-10-09T05:49:50;12.40;;;7.80;;
37409;SDS011;23275;48.914;12.566;2023-10-09T05:52:48;14.63;;;8.25;;
37409;SDS011;23275;48.914;12.566;2023-10-09T05:55:17;13.52;;;8.90;;
37409;SDS011;23275;48.914;12.566;2023-10-09T05:57:52;12.38;;;8.25;;
37409;SDS011;23275;48.914;12.566;2023-10-09T06:03:24;11.38;;;8.20;;
37409;SDS011;23275;48.914;12.566;2023-10-09T06:06:10;13.07;;;9.00;;
37409;SDS011;23275;48.914;12.566;2023-10-09T06:08:43;17.80;;;10.55;;
37409;SDS011;23275;48.914;12.566;2023-10-09T06:11:09;16.38;;;8.88;;
37409;SDS011;23275;48.914;12.566;2023-10-09T06:13:54;15.98;;;8.57;;
37409;SDS011;23275;48.914;12.566;2023-10-09T06:16:35;12.73;;;8.77;;
37409;SDS011;23275;48.914;12.566;2023-10-09T06:19:12;14.02;;;8.02;;
37409;SDS011;23275;48.914;12.566;2023-10-09T06:21:51;10.98;;;7.60;;
37409;SDS011;23275;48.914;12.566;2023-10-09T06:24:18;13.45;;;7.20;;
37409;SDS011;23275;48.914;12.566;2023-10-09T06:26:47;13.52;;;7.90;;
37409;SDS011;23275;48.914;12.566;2023-10-09T06:29:40;12.95;;;8.10;;
37409;SDS011;23275;48.914;12.566;2023-10-09T06:32:10;11.00;;;7.72;;
37409;SDS011;23275;48.914;12.566;2023-10-09T06:34:57;15.20;;;7.38;;
37409;SDS011;23275;48.914;12.566;2023-10-09T06:37:47;10.88;;;6.60;;
37409;SDS011;23275;48.914;12.566;2023-10-09T06:40:29;12.60;;;7.30;;
37409;SDS011;23275;48.914;12.566;2023-10-09T06:43:01;9.25;;;7.18;;
37409;SDS011;23275;48.914;12.566;2023-10-09T06:45:42;10.57;;;6.32;;
37409;SDS011;23275;48.914;12.566;2023-10-09T06:48:11;12.95;;;6.65;;
37409;SDS011;23275;48.914;12.566;2023-10-09T06:50:56;13.00;;;6.90;;
37409;SDS011;23275;48.914;12.566;2023-10-09T06:53:48;11.85;;;6.30;;
37409;SDS011;23275;48.914;12.566;2023-10-09T06:56:22;12.68;;;7.07;;
37409;SDS011;23275;48.914;12.566;2023-10-09T06:58:59;9.15;;;6.47;;
37409;SDS011;23275;48.914;12.566;2023-10-09T07:01:50;9.98;;;6.32;;
37409;SDS011;23275;48.914;12.566;2023-10-09T07:04:35;10.93;;;6.25;;
37409;SDS011;23275;48.914;12.566;2023-10-09T07:07:01;11.55;;;7.18;;
37409;SDS011;23275;48.914;12.566;2023-10-09T07:09:27;8.02;;;5.90;;
37409;SDS011;23275;48.914;12.566;2023-10-09T07:12:07;9.75;;;5.93;;
37409;SDS011;23275;48.914;12.566;2023-10-09T07:14:36;16.88;;;9.35;;
37409;SDS011;23275;48.914;12.566;2023-10-09T07:17:06;13.32;;;7.65;;
37409;SDS011;23275;48.914;12.566;2023-10-09T07:19:52;11.40;;;6.53;;
37409;SDS011;23275;48.914;12.566;2023-10-09T07:22:18;13.27;;;6.78;;
37409;SDS011;23275;48.914;12.566;2023-10-09T07:27:23;10.95;;;5.80;;
37409;SDS011;23275;48.914;12.566;2023-10-09T07:30:12;15.52;;;6.60;;
37409;SDS011;23275;48.914;12.566;2023-10-09T07:35:45;10.07;;;5.47;;
37409;SDS011;23275;48.914;12.566;2023-10-09T07:38:23;9.77;;;5.38;;
37409;SDS011;23275;48.914;12.566;2023-10-09T07:41:00;8.63;;;5.05;;
37409;SDS011;23275;48.914;12.566;2023-10-09T07:43:33;9.80;;;5.65;;
37409;SDS011;23275;48.914;12.566;2023-10-09T07:46:11;12.52;;;5.57;;
37409;SDS011;23275;48.914;12.566;2023-10-09T07:48:57;12.18;;;5.60;;
37409;SDS011;23275;48.914;12.566;2023-10-09T07:51:34;9.65;;;5.35;;
37409;SDS011;23275;48.914;12.566;2023-10-09T07:54:01;9.10;;;5.65;;
37409;SDS011;23275;48.914;12.566;2023-10-09T07:56:39;9.43;;;5.22;;
37409;SDS011;23275;48.914;12.566;2023-10-09T07:59:12;11.27;;;6.05;;
37409;SDS011;23275;48.914;12.566;2023-10-09T08:01:39;10.02;;;5.93;;
37409;SDS011;23275;48.914;12.566;2023-10-09T08:04:17;10.98;;;5.85;;
37409;SDS011;23275;48.914;12.566;2023-10-09T08:07:13;9.07;;;5.72;;
37409;SDS011;23275;48.914;12.566;2023-10-09T08:09:50;11.77;;;6.15;;
37409;SDS011;23275;48.914;12.566;2023-10-09T08:12:37;11.48;;;6.55;;
37409;SDS011;23275;48.914;12.566;2023-10-09T08:15:15;9.70;;;6.05;;
37409;SDS011;23275;48.914;12.566;2023-10-09T08:17:44;8.30;;;5.70;;
37409;SDS011;23275;48.914;12.566;2023-10-09T08:20:28;11.50;;;6.05;;
37409;SDS011;23275;48.914;12.566;2023-10-09T08:23:13;12.82;;;7.32;;
37409;SDS011;23275;48.914;12.566;2023-10-09T08:25:58;8.38;;;5.32;;
37409;SDS011;23275;48.914;12.566;2023-10-09T08:28:41;10.20;;;5.40;;
37409;SDS011;23275;48.914;12.566;2023-10-09T08:31:13;11.13;;;6.00;;
37409;SDS011;23275;48.914;12.566;2023-10-09T08:33:59;11.18;;;5.97;;
37409;SDS011;23275;48.914;12.566;2023-10-09T08:36:26;13.27;;;6.20;;
37409;SDS011;23275;48.914;12.566;2023-10-09T08:38:56;10.90;;;5.78;;
37409;SDS011;23275;48.914;12.566;2023-10-09T08:41:33;11.55;;;5.78;;
37409;SDS011;23275;48.914;12.566;2023-10-09T08:43:58;13.75;;;5.57;;
37409;SDS011;23275;48.914;12.566;2023-10-09T08:46:26;9.02;;;5.03;;
37409;SDS011;23275;48.914;12.566;2023-10-09T08:48:54;11.07;;;5.47;;
37409;SDS011;23275;48.914;12.566;2023-10-09T08:51:24;10.95;;;5.15;;
37409;SDS011;23275;48.914;12.566;2023-10-09T08:53:51;10.35;;;5.45;;
37409;SDS011;23275;48.914;12.566;2023-10-09T08:56:17;11.93;;;5.72;;
37409;SDS011;23275;48.914;12.566;2023-10-09T08:58:47;12.37;;;5.83;;
37409;SDS011;23275;48.914;12.566;2023-10-09T09:01:21;11.18;;;5.60;;
37409;SDS011;23275;48.914;12.566;2023-10-09T09:03:48;12.00;;;6.10;;
37409;SDS011;23275;48.914;12.566;2023-10-09T09:06:15;10.10;;;5.25;;
37409;SDS011;23275;48.914;12.566;2023-10-09T09:08:44;9.98;;;4.85;;
37409;SDS011;23275;48.914;12.566;2023-10-09T09:11:16;10.35;;;4.95;;
37409;SDS011;23275;48.914;12.566;2023-10-09T09:13:43;11.50;;;5.75;;
37409;SDS011;23275;48.914;12.566;2023-10-09T09:16:19;14.40;;;5.38;;
37409;SDS011;23275;48.914;12.566;2023-10-09T09:18:59;11.93;;;5.40;;
37409;SDS011;23275;48.914;12.566;2023-10-09T09:21:38;10.83;;;5.50;;
37409;SDS011;23275;48.914;12.566;2023-10-09T09:24:11;13.55;;;6.00;;
37409;SDS011;23275;48.914;12.566;2023-10-09T09:26:46;17.23;;;5.82;;
37409;SDS011;23275;48.914;12.566;2023-10-09T09:29:23;12.88;;;5.63;;
37409;SDS011;23275;48.914;12.566;2023-10-09T09:32:01;11.90;;;5.10;;
37409;SDS011;23275;48.914;12.566;2023-10-09T09:34:52;11.07;;;5.95;;
37409;SDS011;23275;48.914;12.566;2023-10-09T09:37:29;10.90;;;5.20;;
37409;SDS011;23275;48.914;12.566;2023-10-09T09:40:04;12.50;;;5.55;;
37409;SDS011;23275;48.914;12.566;2023-10-09T09:42:48;15.65;;;5.28;;
37409;SDS011;23275;48.914;12.566;2023-10-09T09:45:14;16.15;;;6.60;;
37409;SDS011;23275;48.914;12.566;2023-10-09T09:47:42;13.07;;;5.68;;
37409;SDS011;23275;48.914;12.566;2023-10-09T09:50:16;10.63;;;5.38;;
37409;SDS011;23275;48.914;12.566;2023-10-09T09:52:49;13.15;;;5.68;;
37409;SDS011;23275;48.914;12.566;2023-10-09T09:55:21;12.52;;;5.60;;
37409;SDS011;23275;48.914;12.566;2023-10-09T09:57:56;16.00;;;5.53;;
37409;SDS011;23275;48.914;12.566;2023-10-09T10:00:22;12.75;;;5.75;;
37409;SDS011;23275;48.914;12.566;2023-10-09T10:03:08;11.48;;;5.30;;
37409;SDS011;23275;48.914;12.566;2023-10-09T10:05:37;13.45;;;5.57;;
37409;SDS011;23275;48.914;12.566;2023-10-09T10:08:07;12.68;;;5.57;;
37409;SDS011;23275;48.914;12.566;2023-10-09T10:13:14;9.85;;;4.95;;
37409;SDS011;23275;48.914;12.566;2023-10-09T10:21:17;9.77;;;5.13;;
37409;SDS011;23275;48.914;12.566;2023-10-09T10:23:43;15.15;;;5.32;;
37409;SDS011;23275;48.914;12.566;2023-10-09T10:26:19;10.73;;;4.82;;
37409;SDS011;23275;48.914;12.566;2023-10-09T10:31:57;16.67;;;5.68;;
37409;SDS011;23275;48.914;12.566;2023-10-09T10:37:39;12.85;;;5.70;;
37409;SDS011;23275;48.914;12.566;2023-10-09T10:40:25;18.50;;;5.18;;
37409;SDS011;23275;48.914;12.566;2023-10-09T10:43:04;13.80;;;5.03;;
37409;SDS011;23275;48.914;12.566;2023-10-09T10:45:39;11.10;;;4.72;;
37409;SDS011;23275;48.914;12.566;2023-10-09T10:48:10;14.95;;;5.07;;
37409;SDS011;23275;48.914;12.566;2023-10-09T10:51:03;12.45;;;5.00;;
37409;SDS011;23275;48.914;12.566;2023-10-09T10:53:29;12.23;;;4.70;;
37409;SDS011;23275;48.914;12.566;2023-10-09T10:56:12;14.25;;;4.88;;
37409;SDS011;23275;48.914;12.566;2023-10-09T10:58:38;14.18;;;5.57;;
37409;SDS011;23275;48.914;12.566;2023-10-09T11:01:18;14.93;;;4.93;;
37409;SDS011;23275;48.914;12.566;2023-10-09T11:03:47;17.63;;;6.30;;
37409;SDS011;23275;48.914;12.566;2023-10-09T11:06:28;15.77;;;5.75;;
37409;SDS011;23275;48.914;12.566;2023-10-09T11:09:05;16.90;;;6.13;;
37409;SDS011;23275;48.914;12.566;2023-10-09T11:11:48;14.45;;;5.38;;
37409;SDS011;23275;48.914;12.566;2023-10-09T11:14:15;13.85;;;5.60;;
37409;SDS011;23275;48.914;12.566;2023-10-09T11:16:42;14.98;;;6.18;;
37409;SDS011;23275;48.914;12.566;2023-10-09T11:19:12;18.77;;;6.00;;
37409;SDS011;23275;48.914;12.566;2023-10-09T11:22:03;13.90;;;5.70;;
37409;SDS011;23275;48.914;12.566;2023-10-09T11:24:30;17.38;;;6.57;;
37409;SDS011;23275;48.914;12.566;2023-10-09T11:27:02;12.00;;;5.30;;
37409;SDS011;23275;48.914;12.566;2023-10-09T11:29:35;12.68;;;5.45;;
37409;SDS011;23275;48.914;12.566;2023-10-09T11:32:30;12.38;;;6.20;;
37409;SDS011;23275;48.914;12.566;2023-10-09T11:35:13;13.43;;;5.95;;
37409;SDS011;23275;48.914;12.566;2023-10-09T11:37:56;18.23;;;6.18;;
37409;SDS011;23275;48.914;12.566;2023-10-09T11:40:29;15.07;;;6.30;;
37409;SDS011;23275;48.914;12.566;2023-10-09T11:43:07;16.15;;;5.78;;
37409;SDS011;23275;48.914;12.566;2023-10-09T11:45:38;17.33;;;6.45;;
37409;SDS011;23275;48.914;12.566;2023-10-09T11:48:17;14.63;;;6.53;;
37409;SDS011;23275;48.914;12.566;2023-10-09T11:50:59;15.27;;;7.35;;
37409;SDS011;23275;48.914;12.566;2023-10-09T11:53:42;15.23;;;6.20;;
37409;SDS011;23275;48.914;12.566;2023-10-09T11:56:10;16.75;;;6.55;;
37409;SDS011;23275;48.914;12.566;2023-10-09T11:58:39;14.20;;;5.82;;
37409;SDS011;23275;48.914;12.566;2023-10-09T12:01:10;14.18;;;6.38;;
37409;SDS011;23275;48.914;12.566;2023-10-09T12:03:42;18.10;;;7.20;;
37409;SDS011;23275;48.914;12.566;2023-10-09T12:06:09;12.68;;;6.30;;
37409;SDS011;23275;48.914;12.566;2023-10-09T12:08:38;10.88;;;6.10;;
37409;SDS011;23275;48.914;12.566;2023-10-09T12:11:07;13.73;;;6.97;;
37409;SDS011;23275;48.914;12.566;2023-10-09T12:13:37;15.43;;;7.00;;
37409;SDS011;23275;48.914;12.566;2023-10-09T12:16:03;18.02;;;6.38;;
37409;SDS011;23275;48.914;12.566;2023-10-09T12:18:33;17.80;;;7.10;;
37409;SDS011;23275;48.914;12.566;2023-10-09T12:20:59;17.13;;;6.20;;
37409;SDS011;23275;48.914;12.566;2023-10-09T12:23:29;16.70;;;6.50;;
37409;SDS011;23275;48.914;12.566;2023-10-09T12:25:57;12.38;;;5.63;;
37409;SDS011;23275;48.914;12.566;2023-10-09T12:28:24;12.60;;;5.80;;
37409;SDS011;23275;48.914;12.566;2023-10-09T12:30:49;13.25;;;6.07;;
37409;SDS011;23275;48.914;12.566;2023-10-09T12:33:16;16.58;;;6.32;;
37409;SDS011;23275;48.914;12.566;2023-10-09T12:35:43;13.07;;;6.35;;
37409;SDS011;23275;48.914;12.566;2023-10-09T12:38:12;13.00;;;6.80;;
37409;SDS011;23275;48.914;12.566;2023-10-09T12:40:43;16.77;;;7.07;;
37409;SDS011;23275;48.914;12.566;2023-10-09T12:43:16;18.58;;;6.55;;
37409;SDS011;23275;48.914;12.566;2023-10-09T12:45:44;14.43;;;6.82;;
37409;SDS011;23275;48.914;12.566;2023-10-09T12:48:10;15.90;;;6.40;;
37409;SDS011;23275;48.914;12.566;2023-10-09T12:50:37;14.63;;;6.03;;
37409;SDS011;23275;48.914;12.566;2023-10-09T12:53:07;18.13;;;6.60;;
37409;SDS011;23275;48.914;12.566;2023-10-09T12:55:36;14.05;;;6.25;;
37409;SDS011;23275;48.914;12.566;2023-10-09T12:58:05;16.77;;;7.40;;
37409;SDS011;23275;48.914;12.566;2023-10-09T13:00:35;13.55;;;6.30;;
37409;SDS011;23275;48.914;12.566;2023-10-09T13:03:09;13.63;;;6.38;;
37409;SDS011;23275;48.914;12.566;2023-10-09T13:05:45;12.90;;;6.03;;
37409;SDS011;23275;48.914;12.566;2023-10-09T13:08:24;11.85;;;6.38;;
37409;SDS011;23275;48.914;12.566;2023-10-09T13:11:07;18.98;;;7.22;;
37409;SDS011;23275;48.914;12.566;2023-10-09T13:13:40;10.93;;;5.47;;
37409;SDS011;23275;48.914;12.566;2023-10-09T13:16:19;17.35;;;6.47;;
37409;SDS011;23275;48.914;12.566;2023-10-09T13:18:48;12.82;;;6.25;;
37409;SDS011;23275;48.914;12.566;2023-10-09T13:21:21;18.10;;;6.78;;
37409;SDS011;23275;48.914;12.566;2023-10-09T13:23:48;14.27;;;6.05;;
37409;SDS011;23275;48.914;12.566;2023-10-09T13:26:20;17.13;;;6.78;;
37409;SDS011;23275;48.914;12.566;2023-10-09T13:28:51;14.45;;;5.93;;
37409;SDS011;23275;48.914;12.566;2023-10-09T13:31:17;20.13;;;6.65;;
37409;SDS011;23275;48.914;12.566;2023-10-09T13:33:45;17.17;;;6.20;;
37409;SDS011;23275;48.914;12.566;2023-10-09T13:36:12;16.70;;;7.18;;
37409;SDS011;23275;48.914;12.566;2023-10-09T13:38:52;15.33;;;8.17;;
37409;SDS011;23275;48.914;12.566;2023-10-09T13:41:18;19.67;;;8.10;;
37409;SDS011;23275;48.914;12.566;2023-10-09T13:43:44;20.55;;;8.73;;
37409;SDS011;23275;48.914;12.566;2023-10-09T13:46:09;16.40;;;7.68;;
37409;SDS011;23275;48.914;12.566;2023-10-09T13:48:36;21.33;;;8.93;;
37409;SDS011;23275;48.914;12.566;2023-10-09T13:51:09;17.58;;;8.20;;
37409;SDS011;23275;48.914;12.566;2023-10-09T13:53:48;24.90;;;9.90;;
37409;SDS011;23275;48.914;12.566;2023-10-09T13:56:15;19.13;;;8.93;;
37409;SDS011;23275;48.914;12.566;2023-10-09T13:58:47;19.48;;;8.82;;
37409;SDS011;23275;48.914;12.566;2023-10-09T14:01:15;15.90;;;7.85;;
37409;SDS011;23275;48.914;12.566;2023-10-09T14:03:54;24.77;;;9.45;;
37409;SDS011;23275;48.914;12.566;2023-10-09T14:06:20;19.08;;;10.27;;
37409;SDS011;23275;48.914;12.566;2023-10-09T14:08:55;25.05;;;10.45;;
37409;SDS011;23275;48.914;12.566;2023-10-09T14:11:25;21.10;;;9.95;;
37409;SDS011;23275;48.914;12.566;2023-10-09T14:13:52;21.75;;;10.75;;
37409;SDS011;23275;48.914;12.566;2023-10-09T14:16:17;20.40;;;10.60;;
37409;SDS011;23275;48.914;12.566;2023-10-09T14:18:52;26.55;;;10.20;;
37409;SDS011;23275;48.914;12.566;2023-10-09T14:21:26;19.38;;;9.88;;
37409;SDS011;23275;48.914;12.566;2023-10-09T14:23:57;19.58;;;9.63;;
37409;SDS011;23275;48.914;12.566;2023-10-09T14:26:24;22.17;;;10.20;;
37409;SDS011;23275;48.914;12.566;2023-10-09T14:28:54;22.85;;;9.25;;
37409;SDS011;23275;48.914;12.566;2023-10-09T14:31:25;21.10;;;7.07;;
37409;SDS011;23275;48.914;12.566;2023-10-09T14:33:54;12.57;;;6.30;;
37409;SDS011;23275;48.914;12.566;2023-10-09T14:36:23;23.35;;;7.00;;
37409;SDS011;23275;48.914;12.566;2023-10-09T14:38:50;16.17;;;6.90;;
37409;SDS011;23275;48.914;12.566;2023-10-09T14:41:21;15.60;;;5.53;;
37409;SDS011;23275;48.914;12.566;2023-10-09T14:43:51;20.80;;;5.47;;
37409;SDS011;23275;48.914;12.566;2023-10-09T14:46:19;17.48;;;5.07;;
37409;SDS011;23275;48.914;12.566;2023-10-09T14:48:50;17.05;;;5.63;;
37409;SDS011;23275;48.914;12.566;2023-10-09T14:51:20;22.27;;;5.40;;
37409;SDS011;23275;48.914;12.566;2023-10-09T14:53:52;14.77;;;4.88;;
37409;SDS011;23275;48.914;12.566;2023-10-09T14:56:22;14.85;;;4.40;;
37409;SDS011;23275;48.914;12.566;2023-10-09T14:58:54;20.95;;;4.60;;
37409;SDS011;23275;48.914;12.566;2023-10-09T15:01:24;15.90;;;4.90;;
37409;SDS011;23275;48.914;12.566;2023-10-09T15:03:57;11.93;;;4.68;;
37409;SDS011;23275;48.914;12.566;2023-10-09T15:06:26;18.90;;;4.90;;
37409;SDS011;23275;48.914;12.566;2023-10-09T15:08:53;15.05;;;4.75;;
37409;SDS011;23275;48.914;12.566;2023-10-09T15:11:24;16.30;;;5.40;;
37409;SDS011;23275;48.914;12.566;2023-10-09T15:16:22;12.60;;;4.70;;
37409;SDS011;23275;48.914;12.566;2023-10-09T15:18:53;21.42;;;6.75;;
37409;SDS011;23275;48.914;12.566;2023-10-09T15:21:19;22.25;;;8.48;;
37409;SDS011;23275;48.914;12.566;2023-10-09T15:23:52;18.98;;;8.50;;
37409;SDS011;23275;48.914;12.566;2023-10-09T15:26:21;19.63;;;7.43;;
37409;SDS011;23275;48.914;12.566;2023-10-09T15:28:49;17.55;;;8.07;;
37409;SDS011;23275;48.914;12.566;2023-10-09T15:31:16;18.52;;;8.73;;
37409;SDS011;23275;48.914;12.566;2023-10-09T15:33:43;17.77;;;8.77;;
37409;SDS011;23275;48.914;12.566;2023-10-09T15:36:12;19.77;;;8.00;;
37409;SDS011;23275;48.914;12.566;2023-10-09T15:38:39;21.45;;;9.13;;
37409;SDS011;23275;48.914;12.566;2023-10-09T15:41:05;21.10;;;7.20;;
37409;SDS011;23275;48.914;12.566;2023-10-09T15:43:31;20.60;;;7.75;;